Nova Boa Vista, Brazil
Current Conditions -  °F | °C
As of 4:00 PM on Wednesday 28 Jan 2015 (Local Time) from SBPF Reporting Station
Broken Clouds Broken Clouds  
Wind Chill: 75°   Ceiling: 10000
Heat Index: 75°   Visibility: 6mi
Dew Point: 59°   Wind: 12mph
Humidity: 57%   Direction: 30°NNE
Pressure: 29.85"   Gusts: NA
Location:  27.99°S, 52.98°W
Report Text: SBPF 281800Z 03010KT 9999 SCT035 SCT050TCU BKN100 24/15 Q1011
Loading
Personal Weather Stations






























Interactive Weather Map New forecast layout! Learn more

10-Day Weather Forecast

Advertisements
Track Severe Weather on mobile